createdAt,value
2022-10-01T00:01:14.943Z,99428.69
2022-10-01T00:03:42.549Z,99439.06
2022-10-01T00:06:16.553Z,99368.72
2022-10-01T00:08:48.831Z,99432.81
2022-10-01T00:11:22.096Z,99402.72
2022-10-01T00:13:49.636Z,99398.59
2022-10-01T00:16:19.759Z,99368.75
2022-10-01T00:18:47.268Z,99422.31
2022-10-01T00:21:21.152Z,99427.59
2022-10-01T00:23:53.345Z,99442.56
2022-10-01T00:26:23.027Z,99422.97
2022-10-01T00:28:54.898Z,99396.84
2022-10-01T00:31:21.626Z,99387.00
2022-10-01T00:33:48.750Z,99423.97
2022-10-01T00:36:15.376Z,99381.84
2022-10-01T00:38:42.215Z,99444.50
2022-10-01T00:41:09.535Z,99433.69
2022-10-01T00:43:40.062Z,99442.19
2022-10-01T00:46:29.811Z,99442.38
2022-10-01T00:49:02.312Z,99444.72
2022-10-01T00:51:35.226Z,99440.44
2022-10-01T00:54:10.273Z,99434.22
2022-10-01T00:56:38.142Z,99424.34
2022-10-01T00:59:06.366Z,99366.31
2022-10-01T01:01:36.733Z,99411.84
2022-10-01T01:04:03.664Z,99399.97
2022-10-01T01:06:30.391Z,99417.72
2022-10-01T01:08:57.032Z,99384.53
2022-10-01T01:11:34.171Z,99421.16
2022-10-01T01:14:19.955Z,99407.94
2022-10-01T01:16:55.051Z,99418.47
2022-10-01T01:19:40.724Z,99403.81
2022-10-01T01:22:09.965Z,99381.69
2022-10-01T01:24:55.888Z,99390.84
2022-10-01T01:27:34.817Z,99295.56
2022-10-01T01:30:08.668Z,99388.00
2022-10-01T01:32:46.381Z,99382.22
2022-10-01T01:35:20.744Z,99341.44
2022-10-01T01:37:53.515Z,99376.22
2022-10-01T01:40:21.989Z,99362.22
2022-10-01T01:42:50.552Z,99385.03
2022-10-01T01:45:22.686Z,99271.06
2022-10-01T01:47:54.327Z,99339.16
2022-10-01T01:50:23.244Z,99336.16
2022-10-01T01:52:49.852Z,99364.28
2022-10-01T01:55:16.490Z,99332.13
2022-10-01T01:57:44.502Z,99325.09
2022-10-01T02:00:12.617Z,99342.72
2022-10-01T02:02:43.543Z,99352.44
2022-10-01T02:05:15.923Z,99330.34
2022-10-01T02:08:01.685Z,99346.81
2022-10-01T02:10:52.591Z,99349.19
2022-10-01T02:13:38.891Z,99357.13
2022-10-01T02:16:32.456Z,99354.13
2022-10-01T02:19:23.837Z,99347.84
2022-10-01T02:21:56.480Z,99346.66
2022-10-01T02:24:32.236Z,99351.75
2022-10-01T02:27:02.769Z,99322.25
2022-10-01T02:29:29.716Z,99346.13
2022-10-01T02:31:57.376Z,99284.63
2022-10-01T02:34:29.155Z,99326.44
2022-10-01T02:36:59.211Z,99333.19
2022-10-01T02:39:29.410Z,99331.38
2022-10-01T02:41:59.233Z,99337.34
2022-10-01T02:44:37.804Z,99326.22
2022-10-01T02:47:33.228Z,99329.59
2022-10-01T02:50:04.588Z,99265.47
2022-10-01T02:52:45.847Z,99241.47
2022-10-01T02:55:17.587Z,99320.44
2022-10-01T02:57:44.340Z,99313.34
2022-10-01T03:00:13.902Z,99321.44
2022-10-01T03:02:40.717Z,99322.28
2022-10-01T03:05:08.347Z,99323.94
2022-10-01T03:07:35.687Z,99319.63
2022-10-01T03:10:04.643Z,99301.78
2022-10-01T03:12:31.631Z,99311.25
2022-10-01T03:14:58.387Z,99288.47
2022-10-01T03:17:25.189Z,99302.22
2022-10-01T03:19:51.860Z,99307.63
2022-10-01T03:22:22.743Z,99314.69
2022-10-01T03:24:52.909Z,99306.13
2022-10-01T03:27:21.122Z,99295.91
2022-10-01T03:29:48.195Z,99283.59
2022-10-01T03:32:15.566Z,99293.91
2022-10-01T03:34:42.427Z,99264.28
2022-10-01T03:37:09.434Z,99292.50
2022-10-01T03:39:36.516Z,99289.88
2022-10-01T03:42:05.759Z,99292.69
2022-10-01T03:44:33.644Z,99257.09
2022-10-01T03:47:00.281Z,99271.94
2022-10-01T03:49:27.801Z,99234.97
2022-10-01T03:51:54.557Z,99193.84
2022-10-01T03:54:21.627Z,99222.94
2022-10-01T03:56:48.938Z,99275.81
2022-10-01T03:59:15.815Z,99276.00
2022-10-01T04:01:42.510Z,99211.28
2022-10-01T04:04:09.272Z,99254.50
2022-10-01T04:06:35.995Z,99246.88
2022-10-01T04:09:02.788Z,99276.16
2022-10-01T04:11:30.116Z,99257.91
2022-10-01T04:13:57.902Z,99257.59
2022-10-01T04:16:25.460Z,99268.75
2022-10-01T04:18:52.138Z,99226.59
2022-10-01T04:21:18.788Z,99252.16
2022-10-01T04:23:45.466Z,99219.63
2022-10-01T04:26:12.063Z,99215.22
2022-10-01T04:28:38.711Z,99172.81
2022-10-01T04:31:24.055Z,99210.81
2022-10-01T04:33:54.786Z,99252.88
2022-10-01T04:36:22.116Z,99259.69
2022-10-01T04:38:51.322Z,99231.66
2022-10-01T04:41:18.183Z,99256.66
2022-10-01T04:43:44.823Z,99228.09
2022-10-01T04:46:11.447Z,99227.44
2022-10-01T04:48:38.054Z,99269.19
2022-10-01T04:51:04.716Z,99241.72
2022-10-01T04:53:31.416Z,99209.88
2022-10-01T04:55:58.075Z,99259.00
2022-10-01T04:58:24.707Z,99242.91
2022-10-01T05:00:51.424Z,99221.13
2022-10-01T05:03:18.364Z,99241.44
2022-10-01T05:05:45.023Z,99226.16
2022-10-01T05:08:11.666Z,99238.97
2022-10-01T05:10:38.620Z,99202.53
2022-10-01T05:13:05.176Z,99243.25
2022-10-01T05:15:31.836Z,99212.50
2022-10-01T05:17:58.567Z,99220.81
2022-10-01T05:20:27.055Z,99254.81
2022-10-01T05:22:54.819Z,99229.94
2022-10-01T05:25:21.394Z,99238.31
2022-10-01T05:27:48.068Z,99235.84
2022-10-01T05:30:23.856Z,99227.84
2022-10-01T05:32:57.754Z,99210.94
2022-10-01T05:35:24.401Z,99235.31
2022-10-01T05:37:55.146Z,99215.06
2022-10-01T05:40:21.784Z,99183.63
2022-10-01T05:42:48.445Z,99230.84
2022-10-01T05:45:15.142Z,99224.16
2022-10-01T05:47:42.300Z,99226.53
2022-10-01T05:50:09.503Z,99217.63
2022-10-01T05:52:36.114Z,99138.25
2022-10-01T05:55:02.854Z,99210.97
2022-10-01T05:57:31.112Z,99206.91
2022-10-01T05:59:57.973Z,99211.34
2022-10-01T06:02:24.785Z,99200.31
2022-10-01T06:04:51.499Z,99188.00
2022-10-01T06:07:18.079Z,99173.41
2022-10-01T06:09:45.120Z,99177.25
2022-10-01T06:12:13.668Z,99192.75
2022-10-01T06:14:43.023Z,99165.19
2022-10-01T06:17:09.614Z,99191.41
2022-10-01T06:19:36.191Z,99183.00
2022-10-01T06:22:02.903Z,99154.03
2022-10-01T06:24:31.008Z,99191.66
2022-10-01T06:26:57.659Z,99200.25
2022-10-01T06:29:24.320Z,99205.38
2022-10-01T06:31:51.767Z,99206.44
2022-10-01T06:34:18.409Z,99219.25
2022-10-01T06:36:45.068Z,99201.28
2022-10-01T06:39:11.635Z,99178.25
2022-10-01T06:41:38.236Z,99179.06
2022-10-01T06:44:08.715Z,99180.31
2022-10-01T06:46:35.378Z,99205.78
2022-10-01T06:49:01.999Z,99185.56
2022-10-01T06:51:47.291Z,99169.56
2022-10-01T06:54:14.558Z,99200.81
2022-10-01T06:56:41.209Z,99204.66
2022-10-01T06:59:07.870Z,99141.75
2022-10-01T07:01:34.876Z,99190.84
2022-10-01T07:04:02.372Z,99188.41
2022-10-01T07:06:28.948Z,99183.50
2022-10-01T07:08:55.906Z,99194.09
2022-10-01T07:11:22.476Z,99115.44
2022-10-01T07:13:54.373Z,99173.31
2022-10-01T07:16:21.438Z,99161.63
2022-10-01T07:18:48.143Z,99178.47
2022-10-01T07:21:14.754Z,99072.41
2022-10-01T07:23:41.385Z,99190.97
2022-10-01T07:26:09.156Z,99159.31
2022-10-01T07:28:35.946Z,99159.50
2022-10-01T07:31:11.233Z,99174.44
2022-10-01T07:33:41.279Z,99156.66
2022-10-01T07:36:10.623Z,99177.72
2022-10-01T07:38:37.285Z,99173.00
2022-10-01T07:41:04.653Z,99165.63
2022-10-01T07:43:34.178Z,99176.66
2022-10-01T07:46:02.791Z,99154.56
2022-10-01T07:48:29.578Z,99136.13
2022-10-01T07:50:57.710Z,99192.13
2022-10-01T07:53:25.261Z,99187.00
2022-10-01T07:55:51.988Z,99153.75
2022-10-01T07:58:18.885Z,99198.25
2022-10-01T08:00:45.701Z,99207.25
2022-10-01T08:03:12.406Z,99198.28
2022-10-01T08:05:41.195Z,99186.44
2022-10-01T08:08:08.804Z,99193.63
2022-10-01T08:10:37.973Z,99136.84
2022-10-01T08:13:14.148Z,99178.72
2022-10-01T08:15:42.319Z,99210.81
2022-10-01T08:18:09.860Z,99203.50
2022-10-01T08:20:39.282Z,99207.63
2022-10-01T08:23:08.239Z,99216.84
2022-10-01T08:25:34.969Z,99211.91
2022-10-01T08:28:01.955Z,99185.38
2022-10-01T08:30:29.982Z,99210.28
2022-10-01T08:32:58.539Z,99188.84
2022-10-01T08:35:26.296Z,99178.25
2022-10-01T08:37:53.167Z,99143.75
2022-10-01T08:40:21.572Z,99209.06
2022-10-01T08:42:59.338Z,99199.69
2022-10-01T08:45:51.504Z,99198.88
2022-10-01T08:48:33.483Z,99196.84
2022-10-01T08:51:20.072Z,99210.53
2022-10-01T08:53:58.766Z,99183.78
2022-10-01T08:56:31.632Z,99199.09
2022-10-01T08:59:02.556Z,99196.84
2022-10-01T09:01:29.943Z,99183.97
2022-10-01T09:03:58.947Z,99178.47
2022-10-01T09:06:27.843Z,99206.84
2022-10-01T09:09:03.101Z,99185.00
2022-10-01T09:11:59.109Z,99188.06
2022-10-01T09:14:57.450Z,99044.63
2022-10-01T09:17:54.494Z,99077.28
2022-10-01T09:20:27.491Z,99152.97
2022-10-01T09:23:26.867Z,99167.06
2022-10-01T09:25:53.793Z,99146.03
2022-10-01T09:28:24.811Z,99040.56
2022-10-01T09:31:03.883Z,99125.81
2022-10-01T09:33:37.240Z,99170.72
2022-10-01T09:36:37.777Z,99190.72
2022-10-01T09:39:26.907Z,99188.28
2022-10-01T09:41:53.749Z,99197.88
2022-10-01T09:44:32.492Z,99182.97
2022-10-01T09:46:59.567Z,99169.28
2022-10-01T09:49:39.515Z,99191.53
2022-10-01T09:52:13.133Z,99188.25
2022-10-01T09:54:46.944Z,99193.16
2022-10-01T09:57:25.155Z,99169.06
2022-10-01T10:00:04.103Z,99206.25
2022-10-01T10:02:46.028Z,99199.72
2022-10-01T10:05:18.631Z,99192.38
2022-10-01T10:08:10.705Z,99193.97
2022-10-01T10:10:39.596Z,99211.91
2022-10-01T10:13:10.036Z,99214.38
2022-10-01T10:15:43.109Z,99176.41
2022-10-01T10:18:22.997Z,99181.69
2022-10-01T10:20:53.905Z,99120.72
2022-10-01T10:23:23.099Z,99187.75
2022-10-01T10:26:01.182Z,99186.50
2022-10-01T10:28:40.384Z,99143.66
2022-10-01T10:31:15.035Z,99177.59
2022-10-01T10:33:53.625Z,99194.72
2022-10-01T10:36:26.733Z,99175.94
2022-10-01T10:38:53.671Z,99184.09
2022-10-01T10:41:26.153Z,99194.72
2022-10-01T10:44:03.608Z,99160.00
2022-10-01T10:46:34.166Z,99153.47
2022-10-01T10:49:29.933Z,99195.25
2022-10-01T10:52:01.607Z,99186.50
2022-10-01T10:54:35.173Z,99132.66
2022-10-01T10:57:21.054Z,99165.44
2022-10-01T11:00:16.447Z,99198.25
2022-10-01T11:03:05.115Z,99185.38
2022-10-01T11:05:39.038Z,99210.84
2022-10-01T11:08:16.889Z,99195.94
2022-10-01T11:10:59.389Z,99200.56
2022-10-01T11:14:09.465Z,99214.03
2022-10-01T11:17:05.768Z,99209.28
2022-10-01T11:19:59.931Z,99202.28
2022-10-01T11:22:38.907Z,99214.50
2022-10-01T11:25:20.553Z,99218.09
2022-10-01T11:28:07.549Z,99214.63
2022-10-01T11:31:13.380Z,99223.28
2022-10-01T11:33:46.380Z,99218.78
2022-10-01T11:36:38.534Z,99221.19
2022-10-01T11:39:13.520Z,99204.13
2022-10-01T11:41:44.677Z,99229.63
2022-10-01T11:44:36.193Z,99220.97
2022-10-01T11:47:08.940Z,99222.88
2022-10-01T11:50:03.065Z,99224.94
2022-10-01T11:52:38.453Z,99215.91
2022-10-01T11:55:44.632Z,99207.41
2022-10-01T11:58:51.406Z,99229.75
2022-10-01T12:01:24.343Z,99237.75
2022-10-01T12:03:53.963Z,99236.72
2022-10-01T12:06:37.639Z,99212.94
2022-10-01T12:09:22.455Z,99214.50
2022-10-01T12:12:01.743Z,99221.06
2022-10-01T12:14:37.374Z,99212.22
2022-10-01T12:17:12.883Z,99216.31
2022-10-01T12:19:45.247Z,99243.88
2022-10-01T12:22:28.862Z,99234.38
2022-10-01T12:24:55.737Z,99203.66
2022-10-01T12:27:31.246Z,99235.94
2022-10-01T12:30:24.957Z,99241.44
2022-10-01T12:33:26.851Z,99236.34
2022-10-01T12:36:08.461Z,99239.91
2022-10-01T12:38:47.163Z,99243.56
2022-10-01T12:41:32.592Z,99232.28
2022-10-01T12:44:26.433Z,99239.72
2022-10-01T12:47:17.776Z,99236.47
2022-10-01T12:49:58.185Z,99233.34
2022-10-01T12:52:52.447Z,99182.91
2022-10-01T12:55:40.458Z,99241.69
2022-10-01T12:58:28.499Z,99230.81
2022-10-01T13:01:12.404Z,99229.53
2022-10-01T13:04:20.546Z,99242.78
2022-10-01T13:07:05.578Z,99234.19
2022-10-01T13:09:44.297Z,99123.91
2022-10-01T13:12:56.454Z,99235.91
2022-10-01T13:15:28.377Z,99248.09
2022-10-01T13:18:09.352Z,99218.22
2022-10-01T13:20:46.724Z,99231.22
2022-10-01T13:23:29.512Z,99231.78
2022-10-01T13:25:59.218Z,99245.28
2022-10-01T13:28:49.789Z,99227.41
2022-10-01T13:31:19.324Z,99237.25
2022-10-01T13:33:57.123Z,99254.13
2022-10-01T13:36:33.283Z,99218.16
2022-10-01T13:39:00.440Z,99230.16
2022-10-01T13:41:34.770Z,99233.50
2022-10-01T13:44:26.628Z,99225.31
2022-10-01T13:47:19.275Z,99244.78
2022-10-01T13:49:57.931Z,99251.56
2022-10-01T13:52:25.297Z,99192.66
2022-10-01T13:54:55.285Z,99197.19
2022-10-01T13:57:34.991Z,99248.13
2022-10-01T14:00:20.044Z,99181.66
2022-10-01T14:03:05.121Z,99246.72
2022-10-01T14:05:43.025Z,99255.00
2022-10-01T14:08:16.958Z,99115.53
2022-10-01T14:11:16.342Z,99236.56
2022-10-01T14:14:04.863Z,99218.63
2022-10-01T14:16:37.463Z,99254.66
2022-10-01T14:19:04.379Z,99263.84
2022-10-01T14:21:49.335Z,99254.59
2022-10-01T14:24:28.614Z,99258.63
2022-10-01T14:27:26.580Z,99258.78
2022-10-01T14:29:55.856Z,99256.81
2022-10-01T14:32:28.334Z,99260.13
2022-10-01T14:35:04.115Z,99262.06
2022-10-01T14:37:31.056Z,99242.16
2022-10-01T14:40:07.835Z,99268.69
2022-10-01T14:42:34.509Z,99233.88
2022-10-01T14:45:01.219Z,99279.25
2022-10-01T14:47:32.535Z,99265.81
2022-10-01T14:50:12.687Z,99281.81
2022-10-01T14:52:45.484Z,99276.78
2022-10-01T14:55:14.785Z,99283.28
2022-10-01T14:57:45.480Z,99207.06
2022-10-01T15:00:24.860Z,99138.56
2022-10-01T15:03:15.099Z,99271.50
2022-10-01T15:05:43.646Z,99275.81
2022-10-01T15:08:19.400Z,99256.25
2022-10-01T15:10:53.435Z,99258.31
2022-10-01T15:13:42.248Z,99272.00
2022-10-01T15:16:17.875Z,99276.19
2022-10-01T15:19:00.140Z,99253.84
2022-10-01T15:21:37.707Z,99239.94
2022-10-01T15:24:06.711Z,99246.31
2022-10-01T15:26:33.720Z,99270.47
2022-10-01T15:29:12.407Z,99301.16
2022-10-01T15:31:40.062Z,99261.66
2022-10-01T15:34:11.491Z,99298.84
2022-10-01T15:36:39.065Z,99242.59
2022-10-01T15:39:18.749Z,99284.16
2022-10-01T15:41:51.837Z,99300.13
2022-10-01T15:44:48.722Z,99297.88
2022-10-01T15:47:34.101Z,99295.66
2022-10-01T15:50:10.279Z,99282.34
2022-10-01T15:52:52.247Z,99317.84
2022-10-01T15:55:43.848Z,99324.25
2022-10-01T15:58:10.460Z,99331.34
2022-10-01T16:00:58.664Z,99335.75
2022-10-01T16:03:34.591Z,99331.94
2022-10-01T16:06:03.058Z,99313.88
2022-10-01T16:08:39.296Z,99331.72
2022-10-01T16:11:31.796Z,99337.31
2022-10-01T16:14:32.382Z,99371.19
2022-10-01T16:17:17.662Z,99370.31
2022-10-01T16:19:50.072Z,99395.16
2022-10-01T16:22:22.654Z,99287.34
2022-10-01T16:24:56.336Z,99371.06
2022-10-01T16:27:45.227Z,99342.94
2022-10-01T16:30:23.263Z,99384.63
2022-10-01T16:32:50.523Z,99390.16
2022-10-01T16:35:27.217Z,99376.44
2022-10-01T16:37:56.082Z,99386.47
2022-10-01T16:40:26.859Z,99383.81
2022-10-01T16:42:54.053Z,99342.50
2022-10-01T16:45:24.838Z,99386.16
2022-10-01T16:47:52.721Z,99338.00
2022-10-01T16:50:22.103Z,99383.94
2022-10-01T16:52:53.354Z,99341.84
2022-10-01T16:55:37.597Z,99355.75
2022-10-01T16:58:05.909Z,99396.75
2022-10-01T17:00:33.178Z,99404.53
2022-10-01T17:03:00.311Z,99366.56
2022-10-01T17:05:33.590Z,99410.41
2022-10-01T17:08:03.568Z,99399.63
2022-10-01T17:10:35.704Z,99408.63
2022-10-01T17:13:03.631Z,99438.09
2022-10-01T17:15:30.427Z,99439.56
2022-10-01T17:17:58.242Z,99403.41
2022-10-01T17:20:28.529Z,99407.34
2022-10-01T17:22:56.451Z,99419.44
2022-10-01T17:25:34.265Z,99401.66
2022-10-01T17:28:03.018Z,99451.50
2022-10-01T17:30:31.133Z,99432.94
2022-10-01T17:32:59.880Z,99418.25
2022-10-01T17:35:27.493Z,99433.78
2022-10-01T17:37:54.158Z,99380.25
2022-10-01T17:40:20.855Z,99427.47
2022-10-01T17:42:47.509Z,99429.16
2022-10-01T17:45:14.422Z,99468.81
2022-10-01T17:47:50.261Z,99480.06
2022-10-01T17:50:17.586Z,99453.88
2022-10-01T17:52:47.325Z,99506.78
2022-10-01T17:55:14.169Z,99509.03
2022-10-01T17:57:40.806Z,99502.28
2022-10-01T18:00:08.245Z,99492.41
2022-10-01T18:02:42.828Z,99508.53
2022-10-01T18:05:12.730Z,99506.94
2022-10-01T18:07:40.528Z,99530.66
2022-10-01T18:10:10.154Z,99543.59
2022-10-01T18:12:36.842Z,99505.34
2022-10-01T18:15:03.945Z,99512.50
2022-10-01T18:17:33.190Z,99528.66
2022-10-01T18:20:00.187Z,99532.94
2022-10-01T18:22:28.206Z,99535.78
2022-10-01T18:24:55.219Z,99509.81
2022-10-01T18:27:22.124Z,99477.53
2022-10-01T18:29:48.793Z,99522.53
2022-10-01T18:32:22.507Z,99537.06
2022-10-01T18:35:02.062Z,99563.25
2022-10-01T18:37:37.726Z,99531.16
2022-10-01T18:40:12.411Z,99565.34
2022-10-01T18:42:54.564Z,99569.03
2022-10-01T18:45:39.821Z,99572.72
2022-10-01T18:48:32.130Z,99578.25
2022-10-01T18:51:15.830Z,99504.03
2022-10-01T18:54:15.223Z,99573.56
2022-10-01T18:56:55.573Z,99564.34
2022-10-01T18:59:57.707Z,99570.91
2022-10-01T19:02:40.671Z,99611.81
2022-10-01T19:05:46.424Z,99610.59
2022-10-01T19:08:51.313Z,99619.00
2022-10-01T19:11:42.506Z,99619.44
2022-10-01T19:14:21.845Z,99618.81
2022-10-01T19:17:18.916Z,99629.84
2022-10-01T19:20:18.143Z,99585.06
2022-10-01T19:23:12.786Z,99647.47
2022-10-01T19:25:55.397Z,99653.63
2022-10-01T19:28:51.826Z,99651.56
2022-10-01T19:31:45.889Z,99673.50
2022-10-01T19:34:22.934Z,99673.09
2022-10-01T19:36:55.041Z,99626.41
2022-10-01T19:39:26.970Z,99669.63
2022-10-01T19:41:59.392Z,99628.28
2022-10-01T19:44:32.459Z,99657.75
2022-10-01T19:47:21.559Z,99617.63
2022-10-01T19:49:50.158Z,99687.22
2022-10-01T19:52:18.578Z,99707.31
2022-10-01T19:54:52.097Z,99720.22
2022-10-01T19:57:23.529Z,99747.88
2022-10-01T19:59:59.459Z,99754.63
2022-10-01T20:02:49.153Z,99744.59
2022-10-01T20:05:22.168Z,99724.69
2022-10-01T20:08:01.370Z,99755.03
2022-10-01T20:11:00.934Z,99764.47
2022-10-01T20:13:37.860Z,99750.13
2022-10-01T20:16:16.683Z,99665.53
2022-10-01T20:18:46.045Z,99758.72
2022-10-01T20:21:50.139Z,99763.41
2022-10-01T20:24:54.760Z,99763.63
2022-10-01T20:27:55.373Z,99760.34
2022-10-01T20:30:23.802Z,99752.16
2022-10-01T20:33:13.879Z,99761.63
2022-10-01T20:36:18.759Z,99759.97
2022-10-01T20:39:03.983Z,99772.66
2022-10-01T20:41:42.292Z,99766.94
2022-10-01T20:44:14.759Z,99710.19
2022-10-01T20:46:47.204Z,99779.66
2022-10-01T20:49:23.896Z,99746.84
2022-10-01T20:51:55.901Z,99742.56
2022-10-01T20:54:32.422Z,99786.00
2022-10-01T20:56:59.625Z,99794.78
2022-10-01T20:59:51.243Z,99799.31
2022-10-01T21:02:46.651Z,99796.44
2022-10-01T21:05:24.538Z,99774.09
2022-10-01T21:08:11.202Z,99763.22
2022-10-01T21:10:46.038Z,99784.75
2022-10-01T21:13:53.577Z,99782.09
2022-10-01T21:16:26.240Z,99807.09
2022-10-01T21:19:10.407Z,99809.34
2022-10-01T21:21:55.516Z,99800.94
2022-10-01T21:24:59.944Z,99825.75
2022-10-01T21:27:47.584Z,99768.50
2022-10-01T21:30:18.541Z,99831.47
2022-10-01T21:33:06.352Z,99824.31
2022-10-01T21:35:41.826Z,99824.91
2022-10-01T21:38:19.008Z,99815.69
2022-10-01T21:41:23.552Z,99830.47
2022-10-01T21:44:08.855Z,99831.72
2022-10-01T21:46:49.296Z,99843.78
2022-10-01T21:49:17.561Z,99843.16
2022-10-01T21:51:53.005Z,99853.19
2022-10-01T21:54:34.882Z,99859.38
2022-10-01T21:57:32.727Z,99851.38
2022-10-01T22:00:19.380Z,99852.00
2022-10-01T22:02:51.228Z,99864.69
2022-10-01T22:05:29.501Z,99846.22
2022-10-01T22:07:59.073Z,99868.56
2022-10-01T22:10:37.625Z,99826.53
2022-10-01T22:13:13.876Z,99874.31
2022-10-01T22:15:44.115Z,99853.19
2022-10-01T22:18:18.042Z,99792.50
2022-10-01T22:20:45.299Z,99890.31
2022-10-01T22:23:17.024Z,99879.03
2022-10-01T22:25:54.079Z,99856.47
2022-10-01T22:28:26.851Z,99886.81
2022-10-01T22:30:57.270Z,99882.69
2022-10-01T22:33:31.507Z,99894.78
2022-10-01T22:36:07.241Z,99864.25
2022-10-01T22:38:54.097Z,99879.59
2022-10-01T22:41:28.296Z,99895.63
2022-10-01T22:43:55.226Z,99822.56
2022-10-01T22:46:24.564Z,99902.97
2022-10-01T22:49:04.729Z,99888.63
2022-10-01T22:51:37.398Z,99894.16
2022-10-01T22:54:06.661Z,99912.22
2022-10-01T22:56:50.289Z,99854.16
2022-10-01T22:59:26.125Z,99857.63
2022-10-01T23:02:37.307Z,99897.84
2022-10-01T23:05:13.077Z,99841.38
2022-10-01T23:07:56.327Z,99896.22
2022-10-01T23:10:36.174Z,99895.38
2022-10-01T23:13:05.481Z,99901.72
2022-10-01T23:15:57.954Z,99922.41
2022-10-01T23:18:34.894Z,99916.91
2022-10-01T23:21:34.723Z,99902.56
2022-10-01T23:24:14.837Z,99924.91
2022-10-01T23:26:44.220Z,99926.16
2022-10-01T23:29:32.171Z,99903.78
2022-10-01T23:32:17.542Z,99913.28
2022-10-01T23:35:08.686Z,99936.44
2022-10-01T23:37:49.930Z,99946.66
2022-10-01T23:40:20.509Z,99875.06
2022-10-01T23:42:58.393Z,99959.41
2022-10-01T23:45:36.124Z,99857.59
2022-10-01T23:48:34.425Z,99977.03
2022-10-01T23:51:23.079Z,99972.09
2022-10-01T23:54:14.487Z,99966.97
2022-10-01T23:56:52.830Z,99975.78
2022-10-01T23:59:41.483Z,99972.09
